createdAt,value
2018-06-11T00:02:14.660Z,16.10
2018-06-11T00:04:42.692Z,16.10
2018-06-11T00:07:10.715Z,16.10
2018-06-11T00:12:06.885Z,16.10
2018-06-11T00:14:34.909Z,16.10
2018-06-11T00:17:03.279Z,16.00
2018-06-11T00:19:31.312Z,16.00
2018-06-11T00:21:59.454Z,16.00
2018-06-11T00:29:23.362Z,15.80
2018-06-11T00:31:51.396Z,15.70
2018-06-11T00:34:19.446Z,15.70
2018-06-11T00:36:47.468Z,15.60
2018-06-11T00:39:15.532Z,15.60
2018-06-11T00:41:43.560Z,15.50
2018-06-11T00:44:11.597Z,15.50
2018-06-11T00:46:39.623Z,15.40
2018-06-11T00:49:07.681Z,15.40
2018-06-11T00:51:35.713Z,15.30
2018-06-11T00:54:03.739Z,15.30
2018-06-11T00:56:31.800Z,15.30
2018-06-11T00:58:59.828Z,15.20
2018-06-11T01:01:27.852Z,15.10
2018-06-11T01:03:55.891Z,15.10
2018-06-11T01:06:23.917Z,15.10
2018-06-11T01:08:51.952Z,15.00
2018-06-11T01:11:19.995Z,15.00
2018-06-11T01:13:48.024Z,15.00
2018-06-11T01:16:16.052Z,15.00
2018-06-11T01:18:44.082Z,14.90
2018-06-11T01:21:12.108Z,14.90
2018-06-11T01:23:40.099Z,14.90
2018-06-11T01:26:08.108Z,14.80
2018-06-11T01:28:36.109Z,14.80
2018-06-11T01:31:04.144Z,14.80
2018-06-11T01:33:32.156Z,14.80
2018-06-11T01:36:00.157Z,14.70
2018-06-11T01:38:28.180Z,14.70
2018-06-11T01:40:56.199Z,14.70
2018-06-11T01:43:24.224Z,14.60
2018-06-11T01:45:52.237Z,14.60
2018-06-11T01:48:20.277Z,14.60
2018-06-11T01:50:48.304Z,14.50
2018-06-11T01:53:16.299Z,14.50
2018-06-11T01:55:44.365Z,14.60
2018-06-11T01:58:12.363Z,14.60
2018-06-11T02:00:40.376Z,14.70
2018-06-11T02:03:08.388Z,14.70
2018-06-11T02:05:36.409Z,14.70
2018-06-11T02:08:04.412Z,14.80
2018-06-11T02:10:32.474Z,14.80
2018-06-11T02:13:00.500Z,14.80
2018-06-11T02:15:28.516Z,14.90
2018-06-11T02:17:56.536Z,15.00
2018-06-11T02:20:24.546Z,14.90
2018-06-11T02:22:52.559Z,15.00
2018-06-11T02:27:48.405Z,15.00
2018-06-11T02:30:16.419Z,15.10
2018-06-11T02:32:44.436Z,15.10
2018-06-11T02:37:40.267Z,15.30
2018-06-11T02:40:08.277Z,15.30
2018-06-11T02:42:36.304Z,15.30
2018-06-11T02:45:04.399Z,15.30
2018-06-11T02:47:32.425Z,15.40
2018-06-11T02:50:00.428Z,15.40
2018-06-11T02:52:28.456Z,15.50
2018-06-11T02:54:56.476Z,15.50
2018-06-11T02:57:24.480Z,15.50
2018-06-11T02:59:52.480Z,15.60
2018-06-11T03:02:20.507Z,15.50
2018-06-11T03:04:48.524Z,15.40
2018-06-11T03:07:16.542Z,15.40
2018-06-11T03:09:44.561Z,15.40
2018-06-11T03:12:12.581Z,15.40
2018-06-11T03:14:40.580Z,15.40
2018-06-11T03:17:08.592Z,15.40
2018-06-11T03:19:36.620Z,15.40
2018-06-11T03:22:04.631Z,15.40
2018-06-11T03:24:32.725Z,15.40
2018-06-11T03:27:00.759Z,15.40
2018-06-11T03:31:56.621Z,15.40
2018-06-11T03:34:24.658Z,15.50
2018-06-11T03:36:52.675Z,15.50
2018-06-11T03:39:20.733Z,15.50
2018-06-11T03:41:48.768Z,15.50
2018-06-11T03:46:44.667Z,15.40
2018-06-11T03:49:12.698Z,15.30
2018-06-11T03:51:40.724Z,15.30
2018-06-11T03:54:08.745Z,15.20
2018-06-11T03:56:36.796Z,15.20
2018-06-11T03:59:04.825Z,15.20
2018-06-11T04:01:32.856Z,15.20
2018-06-11T04:04:00.904Z,15.20
2018-06-11T04:06:28.937Z,15.30
2018-06-11T04:08:56.975Z,15.40
2018-06-11T04:11:25.000Z,15.40
2018-06-11T04:13:53.032Z,15.50
2018-06-11T04:16:21.124Z,15.50
2018-06-11T04:18:49.143Z,15.50
2018-06-11T04:21:17.188Z,15.50
2018-06-11T04:23:45.256Z,15.60
2018-06-11T04:26:13.280Z,15.60
2018-06-11T04:28:41.285Z,15.60
2018-06-11T04:31:09.304Z,15.60
2018-06-11T04:33:37.311Z,15.50
2018-06-11T04:36:05.600Z,15.50
2018-06-11T04:41:01.446Z,15.50
2018-06-11T04:43:29.476Z,15.50
2018-06-11T04:45:57.487Z,15.60
2018-06-11T04:50:53.372Z,15.70
2018-06-11T04:53:21.387Z,15.60
2018-06-11T04:58:17.240Z,15.80
2018-06-11T05:00:45.264Z,15.90
2018-06-11T05:03:13.328Z,15.90
2018-06-11T05:05:41.356Z,15.90
2018-06-11T05:08:09.380Z,15.90
2018-06-11T05:10:37.384Z,16.00
2018-06-11T05:15:33.223Z,15.90
2018-06-11T05:18:01.420Z,15.90
2018-06-11T05:20:29.432Z,16.00
2018-06-11T05:22:57.480Z,15.90
2018-06-11T05:25:25.492Z,16.00
2018-06-11T05:30:21.362Z,16.20
2018-06-11T05:32:49.356Z,16.20
2018-06-11T05:35:17.383Z,16.10
2018-06-11T05:37:45.401Z,16.10
2018-06-11T05:40:13.432Z,16.20
2018-06-11T05:42:41.440Z,16.30
2018-06-11T05:45:09.477Z,16.40
2018-06-11T05:47:37.492Z,16.30
2018-06-11T05:50:05.512Z,16.40
2018-06-11T05:52:33.552Z,16.40
2018-06-11T05:57:29.516Z,16.50
2018-06-11T05:59:57.532Z,16.60
2018-06-11T06:02:25.561Z,16.60
2018-06-11T06:04:53.569Z,16.50
2018-06-11T06:07:21.662Z,16.50
2018-06-11T06:09:49.740Z,16.50
2018-06-11T06:14:45.753Z,16.50
2018-06-11T06:17:13.820Z,16.50
2018-06-11T06:19:42.027Z,16.60
2018-06-11T06:22:10.091Z,16.60
2018-06-11T06:24:38.119Z,16.50
2018-06-11T06:27:06.175Z,16.50
2018-06-11T06:29:34.200Z,16.50
2018-06-11T06:34:30.163Z,16.70
2018-06-11T06:36:58.115Z,16.80
2018-06-11T06:44:21.836Z,16.90
2018-06-11T06:46:49.868Z,16.90
2018-06-11T06:49:17.934Z,17.00
2018-06-11T06:51:45.964Z,17.10
2018-06-11T06:54:14.006Z,17.20
2018-06-11T06:56:42.048Z,17.10
2018-06-11T06:59:10.090Z,17.20
2018-06-11T07:01:38.108Z,17.40
2018-06-11T07:04:06.174Z,17.40
2018-06-11T07:06:34.204Z,17.40
2018-06-11T07:09:02.240Z,17.40
2018-06-11T07:11:30.297Z,17.50
2018-06-11T07:13:58.343Z,17.80
2018-06-11T07:16:26.392Z,18.00
2018-06-11T07:18:54.414Z,18.10
2018-06-11T07:21:22.452Z,18.00
2018-06-11T07:23:50.496Z,17.90
2018-06-11T07:26:18.513Z,17.90
2018-06-11T07:31:14.435Z,17.80
2018-06-11T07:33:42.428Z,17.80
2018-06-11T07:36:10.472Z,17.90
2018-06-11T07:38:38.513Z,17.90
2018-06-11T07:41:06.561Z,18.00
2018-06-11T07:43:34.621Z,18.00
2018-06-11T07:46:02.657Z,18.00
2018-06-11T07:48:30.693Z,17.80
2018-06-11T07:50:58.720Z,17.70
2018-06-11T07:53:26.771Z,17.70
2018-06-11T07:55:54.797Z,17.60
2018-06-11T07:58:22.844Z,17.80
2018-06-11T08:00:50.877Z,18.00
2018-06-11T08:05:46.728Z,18.10
2018-06-11T08:08:14.784Z,17.90
2018-06-11T08:10:42.814Z,18.00
2018-06-11T08:13:10.867Z,17.90
2018-06-11T08:15:38.892Z,17.90
2018-06-11T08:20:34.740Z,18.10
2018-06-11T08:23:02.776Z,18.20
2018-06-11T08:25:30.789Z,18.20
2018-06-11T08:27:58.796Z,18.10
2018-06-11T08:30:26.840Z,18.00
2018-06-11T08:32:54.856Z,17.90
2018-06-11T08:35:22.876Z,18.00
2018-06-11T08:37:50.900Z,18.00
2018-06-11T08:40:18.899Z,18.20
2018-06-11T08:42:46.921Z,18.20
2018-06-11T08:45:14.921Z,18.40
2018-06-11T08:47:42.943Z,18.50
2018-06-11T08:50:11.662Z,18.50
2018-06-11T08:52:40.051Z,18.40
2018-06-11T08:57:35.911Z,18.60
2018-06-11T09:00:05.235Z,18.90
2018-06-11T09:02:33.223Z,18.90
2018-06-11T09:05:01.232Z,18.90
2018-06-11T09:07:29.233Z,18.80
2018-06-11T09:09:57.238Z,18.90
2018-06-11T09:12:25.247Z,18.90
2018-06-11T09:14:53.261Z,19.10
2018-06-11T09:17:21.591Z,19.30
2018-06-11T09:19:49.605Z,19.10
2018-06-11T09:22:17.629Z,19.10
2018-06-11T09:24:45.659Z,19.10
2018-06-11T09:27:13.720Z,19.10
2018-06-11T09:29:41.772Z,18.90
2018-06-11T09:32:09.831Z,19.10
2018-06-11T09:34:37.853Z,19.00
2018-06-11T09:37:05.905Z,18.80
2018-06-11T09:39:33.936Z,18.90
2018-06-11T09:42:01.997Z,19.00
2018-06-11T09:44:30.089Z,19.10
2018-06-11T09:46:58.113Z,19.10
2018-06-11T09:49:26.133Z,19.10
2018-06-11T09:51:54.179Z,19.00
2018-06-11T09:54:22.211Z,18.90
2018-06-11T09:56:50.441Z,19.00
2018-06-11T09:59:18.496Z,19.10
2018-06-11T10:01:46.516Z,19.10
2018-06-11T10:04:14.561Z,19.00
2018-06-11T10:06:42.588Z,19.10
2018-06-11T10:09:10.761Z,19.30
2018-06-11T10:11:38.705Z,19.20
2018-06-11T10:14:06.740Z,19.20
2018-06-11T10:16:34.761Z,19.10
2018-06-11T10:21:30.664Z,19.10
2018-06-11T10:23:58.713Z,19.30
2018-06-11T10:26:26.732Z,19.40
2018-06-11T10:28:55.059Z,19.40
2018-06-11T10:31:23.108Z,19.30
2018-06-11T10:33:51.170Z,19.10
2018-06-11T10:36:19.302Z,19.00
2018-06-11T10:38:47.374Z,19.20
2018-06-11T10:41:15.365Z,19.50
2018-06-11T10:46:11.306Z,19.60
2018-06-11T10:48:39.348Z,19.60
2018-06-11T10:51:07.368Z,19.50
2018-06-11T10:53:35.381Z,19.50
2018-06-11T10:56:03.400Z,19.50
2018-06-11T10:58:31.412Z,19.50
2018-06-11T11:00:59.440Z,19.40
2018-06-11T11:03:27.469Z,19.40
2018-06-11T11:05:55.499Z,19.50
2018-06-11T11:08:23.530Z,19.50
2018-06-11T11:10:51.542Z,19.50
2018-06-11T11:13:19.564Z,19.60
2018-06-11T11:15:47.585Z,19.40
2018-06-11T11:18:15.600Z,19.50
2018-06-11T11:20:43.620Z,19.30
2018-06-11T11:23:11.640Z,19.50
2018-06-11T11:25:39.669Z,19.60
2018-06-11T11:28:07.696Z,19.70
2018-06-11T11:30:35.748Z,19.90
2018-06-11T11:33:03.796Z,20.00
2018-06-11T11:35:31.820Z,19.90
2018-06-11T11:37:59.835Z,19.70
2018-06-11T11:40:27.879Z,19.50
2018-06-11T11:42:55.897Z,19.50
2018-06-11T11:45:23.900Z,19.60
2018-06-11T11:47:51.936Z,19.80
2018-06-11T11:52:47.801Z,20.20
2018-06-11T11:55:15.829Z,20.20
2018-06-11T11:57:43.868Z,20.10
2018-06-11T12:00:11.880Z,20.10
2018-06-11T12:02:39.888Z,20.10
2018-06-11T12:05:07.916Z,19.90
2018-06-11T12:07:35.968Z,19.70
2018-06-11T12:10:03.980Z,19.70
2018-06-11T12:12:31.989Z,19.50
2018-06-11T12:15:00.014Z,19.50
2018-06-11T12:19:55.852Z,19.50
2018-06-11T12:24:51.744Z,19.50
2018-06-11T12:27:19.759Z,19.70
2018-06-11T12:29:47.820Z,19.80
2018-06-11T12:34:43.692Z,19.70
2018-06-11T12:37:11.716Z,19.80
2018-06-11T12:42:07.591Z,19.80
2018-06-11T12:44:35.628Z,20.00
2018-06-11T12:49:31.526Z,19.70
2018-06-11T12:51:59.581Z,19.80
2018-06-11T12:54:27.608Z,19.70
2018-06-11T12:56:55.633Z,19.60
2018-06-11T12:59:23.672Z,19.80
2018-06-11T13:01:51.698Z,19.90
2018-06-11T13:04:19.724Z,19.80
2018-06-11T13:06:47.748Z,19.90
2018-06-11T13:14:11.526Z,20.00
2018-06-11T13:16:39.592Z,20.10
2018-06-11T13:19:07.625Z,20.00
2018-06-11T13:21:35.659Z,20.20
2018-06-11T13:24:03.695Z,20.40
2018-06-11T13:26:31.717Z,20.50
2018-06-11T13:28:59.732Z,20.20
2018-06-11T13:31:27.782Z,20.00
2018-06-11T13:33:55.808Z,19.90
2018-06-11T13:36:23.853Z,20.00
2018-06-11T13:38:51.955Z,20.00
2018-06-11T13:41:19.986Z,20.10
2018-06-11T13:43:47.992Z,20.20
2018-06-11T13:48:43.840Z,20.10
2018-06-11T13:51:11.860Z,20.10
2018-06-11T13:53:39.954Z,20.20
2018-06-11T13:56:08.038Z,20.20
2018-06-11T13:58:36.053Z,20.00
2018-06-11T14:01:04.103Z,19.90
2018-06-11T14:03:32.135Z,19.90
2018-06-11T14:06:00.181Z,19.70
2018-06-11T14:08:28.262Z,19.40
2018-06-11T14:10:56.286Z,19.40
2018-06-11T14:13:24.299Z,19.40
2018-06-11T14:15:52.373Z,19.20
2018-06-11T14:18:20.399Z,19.20
2018-06-11T14:20:48.414Z,19.30
2018-06-11T14:23:16.461Z,19.40
2018-06-11T14:25:44.504Z,19.70
2018-06-11T14:28:12.528Z,19.80
2018-06-11T14:30:40.576Z,19.50
2018-06-11T14:33:08.633Z,19.50
2018-06-11T14:35:36.657Z,19.50
2018-06-11T14:40:32.556Z,19.40
2018-06-11T14:43:00.592Z,19.30
2018-06-11T14:45:28.624Z,19.40
2018-06-11T14:47:57.484Z,19.50
2018-06-11T14:50:25.579Z,19.50
2018-06-11T14:52:53.655Z,19.40
2018-06-11T14:55:21.717Z,19.20
2018-06-11T14:57:49.756Z,19.10
2018-06-11T15:00:17.786Z,19.10
2018-06-11T15:02:45.828Z,19.30
2018-06-11T15:05:13.880Z,19.50
2018-06-11T15:07:41.919Z,19.50
2018-06-11T15:10:09.980Z,19.40
2018-06-11T15:12:38.023Z,19.60
2018-06-11T15:15:06.048Z,19.90
2018-06-11T15:17:34.080Z,20.20
2018-06-11T15:20:02.116Z,20.90
2018-06-11T15:22:30.160Z,21.50
2018-06-11T15:24:58.187Z,21.30
2018-06-11T15:29:54.064Z,21.50
2018-06-11T15:32:22.089Z,21.90
2018-06-11T15:34:50.124Z,22.40
2018-06-11T15:37:18.185Z,22.90
2018-06-11T15:39:46.413Z,22.50
2018-06-11T15:42:14.477Z,22.50
2018-06-11T15:47:10.360Z,22.70
2018-06-11T15:49:38.463Z,22.80
2018-06-11T15:52:06.496Z,22.60
2018-06-11T15:54:34.529Z,22.70
2018-06-11T15:57:02.581Z,22.30
2018-06-11T15:59:30.631Z,22.50
2018-06-11T16:01:58.684Z,22.80
2018-06-11T16:04:26.780Z,22.30
2018-06-11T16:06:54.897Z,22.40
2018-06-11T16:09:22.925Z,22.60
2018-06-11T16:11:50.964Z,22.90
2018-06-11T16:14:18.997Z,22.40
2018-06-11T16:16:47.024Z,22.30
2018-06-11T16:19:15.044Z,22.80
2018-06-11T16:21:43.096Z,23.10
2018-06-11T16:24:11.155Z,23.00
2018-06-11T16:26:40.016Z,23.00
2018-06-11T16:29:08.073Z,22.70
2018-06-11T16:31:36.130Z,22.50
2018-06-11T16:34:04.260Z,22.40
2018-06-11T16:36:32.333Z,22.50
2018-06-11T16:39:00.405Z,22.60
2018-06-11T16:43:56.400Z,22.70
2018-06-11T16:46:24.446Z,22.70
2018-06-11T16:48:52.569Z,22.30
2018-06-11T16:51:20.536Z,22.10
2018-06-11T16:53:48.591Z,22.00
2018-06-11T16:56:16.641Z,21.70
2018-06-11T16:58:44.677Z,21.30
2018-06-11T17:01:12.728Z,21.50
2018-06-11T17:03:40.773Z,21.70
2018-06-11T17:06:08.805Z,21.80
2018-06-11T17:08:36.885Z,21.80
2018-06-11T17:11:05.145Z,21.80
2018-06-11T17:13:33.164Z,21.80
2018-06-11T17:16:01.216Z,21.90
2018-06-11T17:18:29.255Z,22.30
2018-06-11T17:20:57.305Z,22.40
2018-06-11T17:25:53.296Z,21.60
2018-06-11T17:28:21.320Z,21.00
2018-06-11T17:33:17.212Z,21.00
2018-06-11T17:35:45.240Z,21.30
2018-06-11T17:38:13.304Z,21.40
2018-06-11T17:40:41.360Z,21.40
2018-06-11T17:45:37.307Z,21.10
2018-06-11T17:48:05.409Z,20.50
2018-06-11T17:50:33.447Z,20.30
2018-06-11T17:53:01.576Z,20.10
2018-06-11T17:55:29.613Z,20.10
2018-06-11T17:57:57.673Z,19.80
2018-06-11T18:00:25.757Z,19.70
2018-06-11T18:02:53.733Z,19.60
2018-06-11T18:05:21.811Z,19.50
2018-06-11T18:07:49.792Z,19.20
2018-06-11T18:10:17.878Z,19.10
2018-06-11T18:12:45.925Z,19.00
2018-06-11T18:15:13.980Z,19.00
2018-06-11T18:17:42.127Z,18.90
2018-06-11T18:22:37.981Z,18.70
2018-06-11T18:25:06.007Z,18.60
2018-06-11T18:27:34.048Z,18.30
2018-06-11T18:30:02.096Z,18.20
2018-06-11T18:32:30.121Z,18.20
2018-06-11T18:34:58.154Z,18.20
2018-06-11T18:37:26.167Z,18.10
2018-06-11T18:42:22.040Z,17.60
2018-06-11T18:44:50.064Z,17.60
2018-06-11T18:47:18.103Z,17.60
2018-06-11T18:49:46.125Z,17.50
2018-06-11T18:52:14.156Z,17.50
2018-06-11T18:54:42.187Z,17.30
2018-06-11T18:57:10.220Z,17.10
2018-06-11T19:02:06.088Z,16.90
2018-06-11T19:04:34.139Z,16.70
2018-06-11T19:09:29.999Z,16.50
2018-06-11T19:11:58.054Z,16.50
2018-06-11T19:14:26.067Z,16.50
2018-06-11T19:16:54.112Z,16.30
2018-06-11T19:19:22.140Z,16.20
2018-06-11T19:24:17.996Z,16.30
2018-06-11T19:26:46.020Z,16.30
2018-06-11T19:29:14.061Z,16.20
2018-06-11T19:31:42.056Z,16.10
2018-06-11T19:34:10.092Z,16.00
2018-06-11T19:36:38.088Z,16.10
2018-06-11T19:39:06.700Z,16.00
2018-06-11T19:41:34.684Z,15.90
2018-06-11T19:46:30.531Z,15.90
2018-06-11T19:48:58.545Z,15.90
2018-06-11T19:51:26.557Z,15.90
2018-06-11T19:56:22.769Z,15.80
2018-06-11T19:58:50.796Z,15.90
2018-06-11T20:01:18.816Z,15.90
2018-06-11T20:03:46.853Z,15.90
2018-06-11T20:06:14.844Z,15.90
2018-06-11T20:08:42.926Z,16.00
2018-06-11T20:11:10.868Z,15.90
2018-06-11T20:13:38.916Z,15.90
2018-06-11T20:16:06.928Z,15.90
2018-06-11T20:18:34.936Z,15.90
2018-06-11T20:21:02.937Z,15.80
2018-06-11T20:23:30.972Z,15.90
2018-06-11T20:25:59.024Z,15.90
2018-06-11T20:28:27.036Z,15.90
2018-06-11T20:30:55.053Z,15.90
2018-06-11T20:33:23.084Z,15.90
2018-06-11T20:35:51.137Z,15.90
2018-06-11T20:38:19.157Z,15.90
2018-06-11T20:40:47.172Z,16.00
2018-06-11T20:43:15.208Z,15.90
2018-06-11T20:45:43.230Z,15.90
2018-06-11T20:48:11.267Z,15.90
2018-06-11T20:50:39.364Z,15.80
2018-06-11T20:53:07.376Z,15.70
2018-06-11T20:55:35.428Z,15.70
2018-06-11T20:58:03.465Z,15.80
2018-06-11T21:00:31.505Z,15.80
2018-06-11T21:02:59.523Z,15.80
2018-06-11T21:05:27.696Z,15.70
2018-06-11T21:07:55.746Z,15.80
2018-06-11T21:10:23.960Z,15.80
2018-06-11T21:12:51.976Z,15.80
2018-06-11T21:17:47.834Z,15.70
2018-06-11T21:20:15.852Z,15.70
2018-06-11T21:22:43.924Z,15.60
2018-06-11T21:25:11.996Z,15.60
2018-06-11T21:27:40.029Z,15.60
2018-06-11T21:30:08.056Z,15.60
2018-06-11T21:37:31.804Z,15.60
2018-06-11T21:39:59.810Z,15.50
2018-06-11T21:42:27.834Z,15.40
2018-06-11T21:44:55.840Z,15.50
2018-06-11T21:47:23.873Z,15.50
2018-06-11T21:49:51.900Z,15.40
2018-06-11T21:54:47.806Z,15.50
2018-06-11T21:57:15.874Z,15.40
2018-06-11T21:59:43.905Z,15.50
2018-06-11T22:02:11.928Z,15.30
2018-06-11T22:04:39.938Z,15.40
2018-06-11T22:07:07.988Z,15.40
2018-06-11T22:12:03.901Z,15.40
2018-06-11T22:14:31.860Z,15.40
2018-06-11T22:16:59.891Z,15.40
2018-06-11T22:19:27.900Z,15.40
2018-06-11T22:21:55.920Z,15.40
2018-06-11T22:24:23.952Z,15.40
2018-06-11T22:26:52.011Z,15.50
2018-06-11T22:29:20.046Z,15.50
2018-06-11T22:31:48.089Z,15.50
2018-06-11T22:34:16.144Z,15.40
2018-06-11T22:36:44.232Z,15.40
2018-06-11T22:39:12.209Z,15.40
2018-06-11T22:41:40.266Z,15.40
2018-06-11T22:44:08.288Z,15.30
2018-06-11T22:46:36.334Z,15.30
2018-06-11T22:49:04.380Z,15.20
2018-06-11T22:51:32.420Z,15.20
2018-06-11T22:54:00.441Z,15.20
2018-06-11T22:56:28.470Z,15.10
2018-06-11T23:01:24.346Z,15.20
2018-06-11T23:03:52.380Z,15.10
2018-06-11T23:08:48.202Z,15.20
2018-06-11T23:11:16.233Z,15.10
2018-06-11T23:13:44.233Z,15.10
2018-06-11T23:16:12.260Z,15.10
2018-06-11T23:18:40.264Z,15.10
2018-06-11T23:21:08.294Z,15.10
2018-06-11T23:23:36.352Z,15.00
2018-06-11T23:26:04.448Z,15.00
2018-06-11T23:28:32.487Z,14.90
2018-06-11T23:31:00.512Z,14.90
2018-06-11T23:33:28.552Z,14.90
2018-06-11T23:35:56.652Z,14.90
2018-06-11T23:38:24.672Z,15.00
2018-06-11T23:40:52.716Z,14.90
2018-06-11T23:43:20.716Z,15.10
2018-06-11T23:45:48.764Z,15.10
2018-06-11T23:48:16.788Z,15.00
2018-06-11T23:50:44.828Z,15.00
2018-06-11T23:53:12.860Z,15.00
2018-06-11T23:55:40.911Z,15.00
2018-06-11T23:58:08.956Z,15.00
